sensor_id;sensor_type;location;lat;lon;timestamp;P1;durP1;ratioP1;P2;durP2;ratioP2
18455;SDS011;9357;49.900;8.208;2022-12-10T00:00:44;21.45;;;13.13;;
18455;SDS011;9357;49.900;8.208;2022-12-10T00:02:17;19.85;;;12.57;;
18455;SDS011;9357;49.900;8.208;2022-12-10T00:03:50;20.50;;;13.05;;
18455;SDS011;9357;49.900;8.208;2022-12-10T00:05:22;19.55;;;12.48;;
18455;SDS011;9357;49.900;8.208;2022-12-10T00:06:55;19.55;;;12.13;;
18455;SDS011;9357;49.900;8.208;2022-12-10T00:08:29;19.27;;;12.90;;
18455;SDS011;9357;49.900;8.208;2022-12-10T00:10:01;19.85;;;12.73;;
18455;SDS011;9357;49.900;8.208;2022-12-10T00:11:41;23.38;;;12.68;;
18455;SDS011;9357;49.900;8.208;2022-12-10T00:13:14;19.33;;;12.30;;
18455;SDS011;9357;49.900;8.208;2022-12-10T00:14:46;18.90;;;11.80;;
18455;SDS011;9357;49.900;8.208;2022-12-10T00:16:19;20.70;;;12.45;;
18455;SDS011;9357;49.900;8.208;2022-12-10T00:17:53;24.05;;;12.48;;
18455;SDS011;9357;49.900;8.208;2022-12-10T00:19:26;21.17;;;12.60;;
18455;SDS011;9357;49.900;8.208;2022-12-10T00:21:01;18.48;;;12.07;;
18455;SDS011;9357;49.900;8.208;2022-12-10T00:22:33;20.83;;;12.52;;
18455;SDS011;9357;49.900;8.208;2022-12-10T00:24:09;20.15;;;12.30;;
18455;SDS011;9357;49.900;8.208;2022-12-10T00:25:41;19.67;;;12.52;;
18455;SDS011;9357;49.900;8.208;2022-12-10T00:27:13;21.80;;;12.40;;
18455;SDS011;9357;49.900;8.208;2022-12-10T00:28:46;20.05;;;13.15;;
18455;SDS011;9357;49.900;8.208;2022-12-10T00:30:20;20.88;;;13.02;;
18455;SDS011;9357;49.900;8.208;2022-12-10T00:31:51;20.30;;;12.65;;
18455;SDS011;9357;49.900;8.208;2022-12-10T00:33:24;21.83;;;12.73;;
18455;SDS011;9357;49.900;8.208;2022-12-10T00:34:57;18.55;;;11.23;;
18455;SDS011;9357;49.900;8.208;2022-12-10T00:36:31;18.42;;;12.27;;
18455;SDS011;9357;49.900;8.208;2022-12-10T00:38:05;19.20;;;11.57;;
18455;SDS011;9357;49.900;8.208;2022-12-10T00:39:39;18.13;;;11.77;;
18455;SDS011;9357;49.900;8.208;2022-12-10T00:41:12;18.38;;;12.27;;
18455;SDS011;9357;49.900;8.208;2022-12-10T00:42:44;19.30;;;12.02;;
18455;SDS011;9357;49.900;8.208;2022-12-10T00:44:17;18.83;;;12.65;;
18455;SDS011;9357;49.900;8.208;2022-12-10T00:45:50;19.95;;;12.38;;
18455;SDS011;9357;49.900;8.208;2022-12-10T00:47:22;21.23;;;12.68;;
18455;SDS011;9357;49.900;8.208;2022-12-10T00:48:54;18.80;;;12.48;;
18455;SDS011;9357;49.900;8.208;2022-12-10T00:50:27;19.58;;;12.50;;
18455;SDS011;9357;49.900;8.208;2022-12-10T00:52:00;19.33;;;12.48;;
18455;SDS011;9357;49.900;8.208;2022-12-10T00:53:33;19.60;;;12.40;;
18455;SDS011;9357;49.900;8.208;2022-12-10T00:55:09;19.02;;;12.35;;
18455;SDS011;9357;49.900;8.208;2022-12-10T00:56:41;20.77;;;12.45;;
18455;SDS011;9357;49.900;8.208;2022-12-10T00:58:14;19.70;;;12.35;;
18455;SDS011;9357;49.900;8.208;2022-12-10T00:59:46;20.20;;;12.10;;
18455;SDS011;9357;49.900;8.208;2022-12-10T01:01:20;18.98;;;12.35;;
18455;SDS011;9357;49.900;8.208;2022-12-10T01:02:53;19.52;;;12.23;;
18455;SDS011;9357;49.900;8.208;2022-12-10T01:04:25;20.95;;;12.98;;
18455;SDS011;9357;49.900;8.208;2022-12-10T01:06:06;21.80;;;13.00;;
18455;SDS011;9357;49.900;8.208;2022-12-10T01:07:39;20.80;;;13.05;;
18455;SDS011;9357;49.900;8.208;2022-12-10T01:09:13;18.77;;;11.98;;
18455;SDS011;9357;49.900;8.208;2022-12-10T01:10:53;18.23;;;11.80;;
18455;SDS011;9357;49.900;8.208;2022-12-10T01:12:26;18.20;;;11.60;;
18455;SDS011;9357;49.900;8.208;2022-12-10T01:13:58;20.98;;;12.52;;
18455;SDS011;9357;49.900;8.208;2022-12-10T01:15:31;19.83;;;12.13;;
18455;SDS011;9357;49.900;8.208;2022-12-10T01:17:09;18.55;;;11.88;;
18455;SDS011;9357;49.900;8.208;2022-12-10T01:18:42;21.85;;;12.90;;
18455;SDS011;9357;49.900;8.208;2022-12-10T01:20:14;22.60;;;12.75;;
18455;SDS011;9357;49.900;8.208;2022-12-10T01:21:49;20.83;;;12.57;;
18455;SDS011;9357;49.900;8.208;2022-12-10T01:23:22;19.15;;;11.48;;
18455;SDS011;9357;49.900;8.208;2022-12-10T01:24:55;19.85;;;11.93;;
18455;SDS011;9357;49.900;8.208;2022-12-10T01:26:30;20.42;;;11.70;;
18455;SDS011;9357;49.900;8.208;2022-12-10T01:28:04;20.15;;;12.60;;
18455;SDS011;9357;49.900;8.208;2022-12-10T01:29:37;19.25;;;12.45;;
18455;SDS011;9357;49.900;8.208;2022-12-10T01:31:10;19.25;;;12.05;;
18455;SDS011;9357;49.900;8.208;2022-12-10T01:32:43;19.63;;;12.07;;
18455;SDS011;9357;49.900;8.208;2022-12-10T01:34:15;19.65;;;12.25;;
18455;SDS011;9357;49.900;8.208;2022-12-10T01:35:48;17.25;;;11.55;;
18455;SDS011;9357;49.900;8.208;2022-12-10T01:37:20;18.33;;;11.90;;
18455;SDS011;9357;49.900;8.208;2022-12-10T01:38:53;19.50;;;12.63;;
18455;SDS011;9357;49.900;8.208;2022-12-10T01:40:25;18.10;;;12.77;;
18455;SDS011;9357;49.900;8.208;2022-12-10T01:41:59;19.33;;;12.32;;
18455;SDS011;9357;49.900;8.208;2022-12-10T01:43:47;20.50;;;13.15;;
18455;SDS011;9357;49.900;8.208;2022-12-10T01:45:21;22.15;;;12.45;;
18455;SDS011;9357;49.900;8.208;2022-12-10T01:46:54;20.73;;;13.07;;
18455;SDS011;9357;49.900;8.208;2022-12-10T01:48:28;21.42;;;12.45;;
18455;SDS011;9357;49.900;8.208;2022-12-10T01:50:00;20.30;;;12.27;;
18455;SDS011;9357;49.900;8.208;2022-12-10T01:51:34;20.23;;;12.23;;
18455;SDS011;9357;49.900;8.208;2022-12-10T01:53:08;21.48;;;13.30;;
18455;SDS011;9357;49.900;8.208;2022-12-10T01:54:43;20.48;;;12.27;;
18455;SDS011;9357;49.900;8.208;2022-12-10T01:56:16;20.08;;;12.80;;
18455;SDS011;9357;49.900;8.208;2022-12-10T01:57:52;21.10;;;12.75;;
18455;SDS011;9357;49.900;8.208;2022-12-10T01:59:24;20.83;;;12.52;;
18455;SDS011;9357;49.900;8.208;2022-12-10T02:01:01;20.70;;;13.45;;
18455;SDS011;9357;49.900;8.208;2022-12-10T02:02:42;20.77;;;12.75;;
18455;SDS011;9357;49.900;8.208;2022-12-10T02:04:20;21.05;;;12.80;;
18455;SDS011;9357;49.900;8.208;2022-12-10T02:06:01;21.50;;;13.40;;
18455;SDS011;9357;49.900;8.208;2022-12-10T02:07:39;22.58;;;12.93;;
18455;SDS011;9357;49.900;8.208;2022-12-10T02:09:25;22.75;;;13.13;;
18455;SDS011;9357;49.900;8.208;2022-12-10T02:11:06;22.20;;;13.63;;
18455;SDS011;9357;49.900;8.208;2022-12-10T02:12:48;21.83;;;13.45;;
18455;SDS011;9357;49.900;8.208;2022-12-10T02:14:27;20.77;;;13.23;;
18455;SDS011;9357;49.900;8.208;2022-12-10T02:16:06;20.17;;;12.98;;
18455;SDS011;9357;49.900;8.208;2022-12-10T02:17:45;22.60;;;13.57;;
18455;SDS011;9357;49.900;8.208;2022-12-10T02:19:21;25.05;;;14.32;;
18455;SDS011;9357;49.900;8.208;2022-12-10T02:20:58;22.05;;;12.93;;
18455;SDS011;9357;49.900;8.208;2022-12-10T02:22:35;22.85;;;13.27;;
18455;SDS011;9357;49.900;8.208;2022-12-10T02:24:10;24.75;;;13.52;;
18455;SDS011;9357;49.900;8.208;2022-12-10T02:25:48;21.63;;;12.85;;
18455;SDS011;9357;49.900;8.208;2022-12-10T02:27:26;21.70;;;13.40;;
18455;SDS011;9357;49.900;8.208;2022-12-10T02:29:07;21.63;;;13.18;;
18455;SDS011;9357;49.900;8.208;2022-12-10T02:30:44;20.58;;;12.68;;
18455;SDS011;9357;49.900;8.208;2022-12-10T02:32:19;21.13;;;13.52;;
18455;SDS011;9357;49.900;8.208;2022-12-10T02:33:56;20.17;;;13.40;;
18455;SDS011;9357;49.900;8.208;2022-12-10T02:35:31;22.75;;;13.73;;
18455;SDS011;9357;49.900;8.208;2022-12-10T02:37:10;23.63;;;13.85;;
18455;SDS011;9357;49.900;8.208;2022-12-10T02:38:47;20.48;;;13.20;;
18455;SDS011;9357;49.900;8.208;2022-12-10T02:40:22;21.45;;;13.40;;
18455;SDS011;9357;49.900;8.208;2022-12-10T02:41:58;21.65;;;13.68;;
18455;SDS011;9357;49.900;8.208;2022-12-10T02:43:32;21.40;;;13.02;;
18455;SDS011;9357;49.900;8.208;2022-12-10T02:45:07;21.38;;;13.30;;
18455;SDS011;9357;49.900;8.208;2022-12-10T02:46:41;22.17;;;13.50;;
18455;SDS011;9357;49.900;8.208;2022-12-10T02:48:16;20.75;;;13.90;;
18455;SDS011;9357;49.900;8.208;2022-12-10T02:49:51;21.83;;;13.80;;
18455;SDS011;9357;49.900;8.208;2022-12-10T02:51:26;20.20;;;13.30;;
18455;SDS011;9357;49.900;8.208;2022-12-10T02:52:59;21.48;;;13.35;;
18455;SDS011;9357;49.900;8.208;2022-12-10T02:54:40;21.48;;;12.63;;
18455;SDS011;9357;49.900;8.208;2022-12-10T02:56:14;21.95;;;12.98;;
18455;SDS011;9357;49.900;8.208;2022-12-10T02:57:57;22.98;;;13.80;;
18455;SDS011;9357;49.900;8.208;2022-12-10T02:59:41;24.23;;;13.30;;
18455;SDS011;9357;49.900;8.208;2022-12-10T03:01:23;24.02;;;13.70;;
18455;SDS011;9357;49.900;8.208;2022-12-10T03:03:20;21.13;;;13.13;;
18455;SDS011;9357;49.900;8.208;2022-12-10T03:05:01;21.35;;;13.05;;
18455;SDS011;9357;49.900;8.208;2022-12-10T03:06:38;21.73;;;13.52;;
18455;SDS011;9357;49.900;8.208;2022-12-10T03:08:14;20.27;;;13.07;;
18455;SDS011;9357;49.900;8.208;2022-12-10T03:09:50;21.10;;;12.80;;
18455;SDS011;9357;49.900;8.208;2022-12-10T03:11:26;21.58;;;13.00;;
18455;SDS011;9357;49.900;8.208;2022-12-10T03:13:00;21.35;;;12.90;;
18455;SDS011;9357;49.900;8.208;2022-12-10T03:14:35;22.42;;;12.65;;
18455;SDS011;9357;49.900;8.208;2022-12-10T03:16:09;20.35;;;12.93;;
18455;SDS011;9357;49.900;8.208;2022-12-10T03:17:43;22.52;;;13.23;;
18455;SDS011;9357;49.900;8.208;2022-12-10T03:19:20;23.17;;;13.15;;
18455;SDS011;9357;49.900;8.208;2022-12-10T03:20:58;23.00;;;12.93;;
18455;SDS011;9357;49.900;8.208;2022-12-10T03:22:33;19.95;;;12.18;;
18455;SDS011;9357;49.900;8.208;2022-12-10T03:24:09;20.80;;;12.85;;
18455;SDS011;9357;49.900;8.208;2022-12-10T03:25:43;21.13;;;12.63;;
18455;SDS011;9357;49.900;8.208;2022-12-10T03:27:19;20.65;;;12.80;;
18455;SDS011;9357;49.900;8.208;2022-12-10T03:28:56;20.48;;;11.88;;
18455;SDS011;9357;49.900;8.208;2022-12-10T03:30:33;17.95;;;11.32;;
18455;SDS011;9357;49.900;8.208;2022-12-10T03:32:08;18.60;;;11.50;;
18455;SDS011;9357;49.900;8.208;2022-12-10T03:33:43;19.23;;;11.75;;
18455;SDS011;9357;49.900;8.208;2022-12-10T03:35:17;17.52;;;11.20;;
18455;SDS011;9357;49.900;8.208;2022-12-10T03:36:53;19.08;;;11.35;;
18455;SDS011;9357;49.900;8.208;2022-12-10T03:38:26;18.17;;;11.32;;
18455;SDS011;9357;49.900;8.208;2022-12-10T03:39:59;18.63;;;10.70;;
18455;SDS011;9357;49.900;8.208;2022-12-10T03:41:32;18.30;;;10.85;;
18455;SDS011;9357;49.900;8.208;2022-12-10T03:43:05;19.65;;;11.60;;
18455;SDS011;9357;49.900;8.208;2022-12-10T03:44:38;17.27;;;10.63;;
18455;SDS011;9357;49.900;8.208;2022-12-10T03:46:11;16.33;;;10.35;;
18455;SDS011;9357;49.900;8.208;2022-12-10T03:47:44;18.52;;;11.15;;
18455;SDS011;9357;49.900;8.208;2022-12-10T03:49:18;19.70;;;11.48;;
18455;SDS011;9357;49.900;8.208;2022-12-10T03:50:51;17.92;;;10.98;;
18455;SDS011;9357;49.900;8.208;2022-12-10T03:52:23;20.83;;;11.70;;
18455;SDS011;9357;49.900;8.208;2022-12-10T03:53:56;16.73;;;10.63;;
18455;SDS011;9357;49.900;8.208;2022-12-10T03:55:28;17.98;;;10.75;;
18455;SDS011;9357;49.900;8.208;2022-12-10T03:57:01;16.17;;;10.95;;
18455;SDS011;9357;49.900;8.208;2022-12-10T03:58:33;19.30;;;11.85;;
18455;SDS011;9357;49.900;8.208;2022-12-10T04:00:07;18.17;;;10.80;;
18455;SDS011;9357;49.900;8.208;2022-12-10T04:01:41;18.58;;;11.23;;
18455;SDS011;9357;49.900;8.208;2022-12-10T04:03:13;17.60;;;11.88;;
18455;SDS011;9357;49.900;8.208;2022-12-10T04:04:47;16.55;;;10.80;;
18455;SDS011;9357;49.900;8.208;2022-12-10T04:06:20;20.23;;;11.82;;
18455;SDS011;9357;49.900;8.208;2022-12-10T04:07:52;19.00;;;11.48;;
18455;SDS011;9357;49.900;8.208;2022-12-10T04:09:25;18.98;;;11.40;;
18455;SDS011;9357;49.900;8.208;2022-12-10T04:11:01;17.95;;;11.48;;
18455;SDS011;9357;49.900;8.208;2022-12-10T04:12:35;19.25;;;11.70;;
18455;SDS011;9357;49.900;8.208;2022-12-10T04:14:08;19.00;;;12.23;;
18455;SDS011;9357;49.900;8.208;2022-12-10T04:15:58;19.58;;;11.45;;
18455;SDS011;9357;49.900;8.208;2022-12-10T04:17:49;20.25;;;11.68;;
18455;SDS011;9357;49.900;8.208;2022-12-10T04:19:21;19.33;;;11.38;;
18455;SDS011;9357;49.900;8.208;2022-12-10T04:20:55;19.73;;;11.98;;
18455;SDS011;9357;49.900;8.208;2022-12-10T04:22:45;19.27;;;11.55;;
18455;SDS011;9357;49.900;8.208;2022-12-10T04:24:36;20.50;;;12.23;;
18455;SDS011;9357;49.900;8.208;2022-12-10T04:26:26;20.52;;;12.02;;
18455;SDS011;9357;49.900;8.208;2022-12-10T04:28:17;20.10;;;12.48;;
18455;SDS011;9357;49.900;8.208;2022-12-10T04:29:49;20.70;;;12.30;;
18455;SDS011;9357;49.900;8.208;2022-12-10T04:31:23;19.83;;;12.02;;
18455;SDS011;9357;49.900;8.208;2022-12-10T04:32:54;19.75;;;12.00;;
18455;SDS011;9357;49.900;8.208;2022-12-10T04:34:27;21.52;;;12.80;;
18455;SDS011;9357;49.900;8.208;2022-12-10T04:36:00;19.48;;;12.57;;
18455;SDS011;9357;49.900;8.208;2022-12-10T04:37:33;20.75;;;12.88;;
18455;SDS011;9357;49.900;8.208;2022-12-10T04:39:06;20.83;;;13.55;;
18455;SDS011;9357;49.900;8.208;2022-12-10T04:40:38;20.48;;;13.05;;
18455;SDS011;9357;49.900;8.208;2022-12-10T04:42:11;20.40;;;13.45;;
18455;SDS011;9357;49.900;8.208;2022-12-10T04:43:43;22.13;;;13.52;;
18455;SDS011;9357;49.900;8.208;2022-12-10T04:45:16;19.63;;;12.40;;
18455;SDS011;9357;49.900;8.208;2022-12-10T04:46:49;20.75;;;13.57;;
18455;SDS011;9357;49.900;8.208;2022-12-10T04:48:22;20.88;;;13.43;;
18455;SDS011;9357;49.900;8.208;2022-12-10T04:49:55;21.77;;;13.30;;
18455;SDS011;9357;49.900;8.208;2022-12-10T04:51:29;21.23;;;13.55;;
18455;SDS011;9357;49.900;8.208;2022-12-10T04:53:02;21.30;;;12.75;;
18455;SDS011;9357;49.900;8.208;2022-12-10T04:54:35;21.98;;;12.73;;
18455;SDS011;9357;49.900;8.208;2022-12-10T04:56:09;20.00;;;12.10;;
18455;SDS011;9357;49.900;8.208;2022-12-10T04:57:42;20.98;;;13.40;;
18455;SDS011;9357;49.900;8.208;2022-12-10T04:59:15;20.23;;;12.23;;
18455;SDS011;9357;49.900;8.208;2022-12-10T05:00:48;18.90;;;12.40;;
18455;SDS011;9357;49.900;8.208;2022-12-10T05:02:21;20.75;;;12.50;;
18455;SDS011;9357;49.900;8.208;2022-12-10T05:03:54;18.95;;;12.20;;
18455;SDS011;9357;49.900;8.208;2022-12-10T05:05:29;21.90;;;12.77;;
18455;SDS011;9357;49.900;8.208;2022-12-10T05:07:03;20.10;;;11.65;;
18455;SDS011;9357;49.900;8.208;2022-12-10T05:08:37;20.92;;;12.95;;
18455;SDS011;9357;49.900;8.208;2022-12-10T05:10:10;20.08;;;12.93;;
18455;SDS011;9357;49.900;8.208;2022-12-10T05:11:42;19.60;;;12.75;;
18455;SDS011;9357;49.900;8.208;2022-12-10T05:13:16;19.27;;;12.25;;
18455;SDS011;9357;49.900;8.208;2022-12-10T05:14:48;21.17;;;11.93;;
18455;SDS011;9357;49.900;8.208;2022-12-10T05:16:22;19.75;;;11.68;;
18455;SDS011;9357;49.900;8.208;2022-12-10T05:17:54;22.25;;;12.48;;
18455;SDS011;9357;49.900;8.208;2022-12-10T05:19:27;22.05;;;12.82;;
18455;SDS011;9357;49.900;8.208;2022-12-10T05:20:59;20.67;;;12.23;;
18455;SDS011;9357;49.900;8.208;2022-12-10T05:22:33;20.75;;;12.10;;
18455;SDS011;9357;49.900;8.208;2022-12-10T05:24:24;20.08;;;11.95;;
18455;SDS011;9357;49.900;8.208;2022-12-10T05:26:00;19.33;;;12.18;;
18455;SDS011;9357;49.900;8.208;2022-12-10T05:27:33;18.52;;;11.93;;
18455;SDS011;9357;49.900;8.208;2022-12-10T05:29:06;19.30;;;12.20;;
18455;SDS011;9357;49.900;8.208;2022-12-10T05:30:39;19.13;;;12.07;;
18455;SDS011;9357;49.900;8.208;2022-12-10T05:32:11;20.35;;;12.30;;
18455;SDS011;9357;49.900;8.208;2022-12-10T05:33:44;22.00;;;12.63;;
18455;SDS011;9357;49.900;8.208;2022-12-10T05:35:17;19.50;;;12.75;;
18455;SDS011;9357;49.900;8.208;2022-12-10T05:36:50;20.33;;;11.63;;
18455;SDS011;9357;49.900;8.208;2022-12-10T05:38:25;19.60;;;12.10;;
18455;SDS011;9357;49.900;8.208;2022-12-10T05:39:59;19.02;;;11.98;;
18455;SDS011;9357;49.900;8.208;2022-12-10T05:41:34;20.00;;;12.40;;
18455;SDS011;9357;49.900;8.208;2022-12-10T05:43:06;20.30;;;12.10;;
18455;SDS011;9357;49.900;8.208;2022-12-10T05:44:40;19.95;;;12.00;;
18455;SDS011;9357;49.900;8.208;2022-12-10T05:46:13;20.35;;;12.52;;
18455;SDS011;9357;49.900;8.208;2022-12-10T05:47:47;22.73;;;12.70;;
18455;SDS011;9357;49.900;8.208;2022-12-10T05:49:20;19.27;;;11.88;;
18455;SDS011;9357;49.900;8.208;2022-12-10T05:50:53;19.55;;;12.63;;
18455;SDS011;9357;49.900;8.208;2022-12-10T05:52:26;19.08;;;11.88;;
18455;SDS011;9357;49.900;8.208;2022-12-10T05:53:59;19.55;;;12.10;;
18455;SDS011;9357;49.900;8.208;2022-12-10T05:55:34;20.40;;;12.63;;
18455;SDS011;9357;49.900;8.208;2022-12-10T05:57:07;21.05;;;12.82;;
18455;SDS011;9357;49.900;8.208;2022-12-10T05:58:40;22.20;;;13.50;;
18455;SDS011;9357;49.900;8.208;2022-12-10T06:00:14;18.95;;;12.02;;
18455;SDS011;9357;49.900;8.208;2022-12-10T06:01:47;19.98;;;12.18;;
18455;SDS011;9357;49.900;8.208;2022-12-10T06:03:19;21.00;;;12.65;;
18455;SDS011;9357;49.900;8.208;2022-12-10T06:04:51;20.00;;;12.48;;
18455;SDS011;9357;49.900;8.208;2022-12-10T06:06:25;19.63;;;12.75;;
18455;SDS011;9357;49.900;8.208;2022-12-10T06:07:59;22.70;;;12.98;;
18455;SDS011;9357;49.900;8.208;2022-12-10T06:09:33;19.70;;;12.48;;
18455;SDS011;9357;49.900;8.208;2022-12-10T06:11:06;20.38;;;12.13;;
18455;SDS011;9357;49.900;8.208;2022-12-10T06:12:40;19.38;;;12.50;;
18455;SDS011;9357;49.900;8.208;2022-12-10T06:14:13;19.60;;;12.30;;
18455;SDS011;9357;49.900;8.208;2022-12-10T06:15:46;21.10;;;12.90;;
18455;SDS011;9357;49.900;8.208;2022-12-10T06:17:19;20.60;;;12.13;;
18455;SDS011;9357;49.900;8.208;2022-12-10T06:18:52;19.35;;;11.95;;
18455;SDS011;9357;49.900;8.208;2022-12-10T06:20:25;20.65;;;12.65;;
18455;SDS011;9357;49.900;8.208;2022-12-10T06:21:58;19.48;;;12.30;;
18455;SDS011;9357;49.900;8.208;2022-12-10T06:23:31;20.70;;;12.23;;
18455;SDS011;9357;49.900;8.208;2022-12-10T06:25:04;18.45;;;11.68;;
18455;SDS011;9357;49.900;8.208;2022-12-10T06:26:38;22.02;;;12.75;;
18455;SDS011;9357;49.900;8.208;2022-12-10T06:28:10;23.25;;;12.93;;
18455;SDS011;9357;49.900;8.208;2022-12-10T06:29:44;20.02;;;12.15;;
18455;SDS011;9357;49.900;8.208;2022-12-10T06:31:16;20.92;;;12.25;;
18455;SDS011;9357;49.900;8.208;2022-12-10T06:32:50;20.33;;;13.00;;
18455;SDS011;9357;49.900;8.208;2022-12-10T06:34:22;19.20;;;11.95;;
18455;SDS011;9357;49.900;8.208;2022-12-10T06:35:55;22.50;;;13.63;;
18455;SDS011;9357;49.900;8.208;2022-12-10T06:37:28;19.95;;;12.25;;
18455;SDS011;9357;49.900;8.208;2022-12-10T06:39:01;20.50;;;12.27;;
18455;SDS011;9357;49.900;8.208;2022-12-10T06:40:35;19.65;;;12.00;;
18455;SDS011;9357;49.900;8.208;2022-12-10T06:42:10;22.75;;;12.68;;
18455;SDS011;9357;49.900;8.208;2022-12-10T06:43:43;19.35;;;11.88;;
18455;SDS011;9357;49.900;8.208;2022-12-10T06:45:15;20.27;;;12.30;;
18455;SDS011;9357;49.900;8.208;2022-12-10T06:46:48;21.92;;;12.65;;
18455;SDS011;9357;49.900;8.208;2022-12-10T06:48:21;22.40;;;13.27;;
18455;SDS011;9357;49.900;8.208;2022-12-10T06:49:54;20.63;;;12.50;;
18455;SDS011;9357;49.900;8.208;2022-12-10T06:51:27;20.15;;;12.40;;
18455;SDS011;9357;49.900;8.208;2022-12-10T06:52:59;22.20;;;12.20;;
18455;SDS011;9357;49.900;8.208;2022-12-10T06:54:31;22.13;;;12.90;;
18455;SDS011;9357;49.900;8.208;2022-12-10T06:56:06;25.00;;;12.30;;
18455;SDS011;9357;49.900;8.208;2022-12-10T06:57:40;18.30;;;11.07;;
18455;SDS011;9357;49.900;8.208;2022-12-10T06:59:13;20.42;;;12.80;;
18455;SDS011;9357;49.900;8.208;2022-12-10T07:00:46;20.58;;;12.23;;
18455;SDS011;9357;49.900;8.208;2022-12-10T07:02:18;20.00;;;12.45;;
18455;SDS011;9357;49.900;8.208;2022-12-10T07:03:51;21.48;;;12.65;;
18455;SDS011;9357;49.900;8.208;2022-12-10T07:05:25;19.80;;;11.32;;
18455;SDS011;9357;49.900;8.208;2022-12-10T07:06:58;19.13;;;11.52;;
18455;SDS011;9357;49.900;8.208;2022-12-10T07:08:38;19.33;;;12.07;;
18455;SDS011;9357;49.900;8.208;2022-12-10T07:10:10;19.13;;;11.80;;
18455;SDS011;9357;49.900;8.208;2022-12-10T07:11:44;18.02;;;11.82;;
18455;SDS011;9357;49.900;8.208;2022-12-10T07:13:17;19.98;;;11.90;;
18455;SDS011;9357;49.900;8.208;2022-12-10T07:14:49;18.77;;;11.45;;
18455;SDS011;9357;49.900;8.208;2022-12-10T07:16:22;19.73;;;11.85;;
18455;SDS011;9357;49.900;8.208;2022-12-10T07:17:56;19.50;;;12.57;;
18455;SDS011;9357;49.900;8.208;2022-12-10T07:19:29;18.90;;;12.20;;
18455;SDS011;9357;49.900;8.208;2022-12-10T07:21:01;19.88;;;11.68;;
18455;SDS011;9357;49.900;8.208;2022-12-10T07:22:44;20.33;;;11.90;;
18455;SDS011;9357;49.900;8.208;2022-12-10T07:24:17;18.90;;;11.80;;
18455;SDS011;9357;49.900;8.208;2022-12-10T07:25:51;18.67;;;11.35;;
18455;SDS011;9357;49.900;8.208;2022-12-10T07:27:28;18.08;;;11.95;;
18455;SDS011;9357;49.900;8.208;2022-12-10T07:29:02;19.50;;;12.20;;
18455;SDS011;9357;49.900;8.208;2022-12-10T07:30:36;19.38;;;12.02;;
18455;SDS011;9357;49.900;8.208;2022-12-10T07:32:09;19.60;;;11.68;;
18455;SDS011;9357;49.900;8.208;2022-12-10T07:33:40;17.63;;;11.35;;
18455;SDS011;9357;49.900;8.208;2022-12-10T07:35:13;18.08;;;11.18;;
18455;SDS011;9357;49.900;8.208;2022-12-10T07:36:46;17.98;;;11.10;;
18455;SDS011;9357;49.900;8.208;2022-12-10T07:38:19;19.90;;;11.30;;
18455;SDS011;9357;49.900;8.208;2022-12-10T07:39:52;18.92;;;11.52;;
18455;SDS011;9357;49.900;8.208;2022-12-10T07:41:24;18.35;;;11.88;;
18455;SDS011;9357;49.900;8.208;2022-12-10T07:42:59;19.20;;;12.07;;
18455;SDS011;9357;49.900;8.208;2022-12-10T07:44:32;18.48;;;11.82;;
18455;SDS011;9357;49.900;8.208;2022-12-10T07:46:04;20.42;;;11.77;;
18455;SDS011;9357;49.900;8.208;2022-12-10T07:47:37;19.25;;;11.35;;
18455;SDS011;9357;49.900;8.208;2022-12-10T07:49:11;17.15;;;11.68;;
18455;SDS011;9357;49.900;8.208;2022-12-10T07:50:43;19.35;;;12.00;;
18455;SDS011;9357;49.900;8.208;2022-12-10T07:52:16;18.63;;;11.75;;
18455;SDS011;9357;49.900;8.208;2022-12-10T07:53:50;20.80;;;12.70;;
18455;SDS011;9357;49.900;8.208;2022-12-10T07:55:24;22.15;;;13.70;;
18455;SDS011;9357;49.900;8.208;2022-12-10T07:56:56;19.98;;;12.77;;
18455;SDS011;9357;49.900;8.208;2022-12-10T07:58:31;20.65;;;13.50;;
18455;SDS011;9357;49.900;8.208;2022-12-10T08:00:05;20.58;;;13.07;;
18455;SDS011;9357;49.900;8.208;2022-12-10T08:01:39;20.20;;;13.07;;
18455;SDS011;9357;49.900;8.208;2022-12-10T08:03:12;23.27;;;14.18;;
18455;SDS011;9357;49.900;8.208;2022-12-10T08:04:45;22.08;;;13.27;;
18455;SDS011;9357;49.900;8.208;2022-12-10T08:06:18;19.45;;;13.13;;
18455;SDS011;9357;49.900;8.208;2022-12-10T08:07:53;20.42;;;13.45;;
18455;SDS011;9357;49.900;8.208;2022-12-10T08:09:34;20.25;;;13.55;;
18455;SDS011;9357;49.900;8.208;2022-12-10T08:11:07;19.50;;;13.07;;
18455;SDS011;9357;49.900;8.208;2022-12-10T08:12:40;23.10;;;13.23;;
18455;SDS011;9357;49.900;8.208;2022-12-10T08:14:14;20.58;;;13.55;;
18455;SDS011;9357;49.900;8.208;2022-12-10T08:15:47;20.88;;;14.00;;
18455;SDS011;9357;49.900;8.208;2022-12-10T08:17:20;22.02;;;13.98;;
18455;SDS011;9357;49.900;8.208;2022-12-10T08:18:53;20.95;;;13.15;;
18455;SDS011;9357;49.900;8.208;2022-12-10T08:20:26;22.02;;;14.38;;
18455;SDS011;9357;49.900;8.208;2022-12-10T08:21:59;23.50;;;14.18;;
18455;SDS011;9357;49.900;8.208;2022-12-10T08:23:32;24.40;;;14.25;;
18455;SDS011;9357;49.900;8.208;2022-12-10T08:25:05;23.58;;;14.50;;
18455;SDS011;9357;49.900;8.208;2022-12-10T08:26:38;21.92;;;14.27;;
18455;SDS011;9357;49.900;8.208;2022-12-10T08:28:11;22.95;;;13.20;;
18455;SDS011;9357;49.900;8.208;2022-12-10T08:29:45;20.42;;;13.18;;
18455;SDS011;9357;49.900;8.208;2022-12-10T08:31:19;20.85;;;12.13;;
18455;SDS011;9357;49.900;8.208;2022-12-10T08:32:53;24.70;;;12.63;;
18455;SDS011;9357;49.900;8.208;2022-12-10T08:34:26;19.70;;;12.23;;
18455;SDS011;9357;49.900;8.208;2022-12-10T08:35:58;18.17;;;11.70;;
18455;SDS011;9357;49.900;8.208;2022-12-10T08:37:31;18.95;;;11.48;;
18455;SDS011;9357;49.900;8.208;2022-12-10T08:39:03;19.55;;;12.30;;
18455;SDS011;9357;49.900;8.208;2022-12-10T08:40:38;21.30;;;12.02;;
18455;SDS011;9357;49.900;8.208;2022-12-10T08:42:11;20.20;;;12.45;;
18455;SDS011;9357;49.900;8.208;2022-12-10T08:43:44;21.30;;;12.02;;
18455;SDS011;9357;49.900;8.208;2022-12-10T08:45:19;18.42;;;11.55;;
18455;SDS011;9357;49.900;8.208;2022-12-10T08:46:52;17.88;;;11.25;;
18455;SDS011;9357;49.900;8.208;2022-12-10T08:48:25;18.05;;;12.25;;
18455;SDS011;9357;49.900;8.208;2022-12-10T08:49:58;18.65;;;12.00;;
18455;SDS011;9357;49.900;8.208;2022-12-10T08:51:30;18.73;;;11.68;;
18455;SDS011;9357;49.900;8.208;2022-12-10T08:53:03;19.30;;;12.40;;
18455;SDS011;9357;49.900;8.208;2022-12-10T08:54:36;18.95;;;12.38;;
18455;SDS011;9357;49.900;8.208;2022-12-10T08:56:09;18.40;;;12.10;;
18455;SDS011;9357;49.900;8.208;2022-12-10T08:57:42;20.92;;;12.07;;
18455;SDS011;9357;49.900;8.208;2022-12-10T08:59:15;19.45;;;12.43;;
18455;SDS011;9357;49.900;8.208;2022-12-10T09:00:49;19.00;;;12.25;;
18455;SDS011;9357;49.900;8.208;2022-12-10T09:02:22;18.40;;;11.88;;
18455;SDS011;9357;49.900;8.208;2022-12-10T09:03:55;19.67;;;11.80;;
18455;SDS011;9357;49.900;8.208;2022-12-10T09:05:28;22.27;;;13.90;;
18455;SDS011;9357;49.900;8.208;2022-12-10T09:07:01;18.95;;;12.60;;
18455;SDS011;9357;49.900;8.208;2022-12-10T09:08:34;19.35;;;12.57;;
18455;SDS011;9357;49.900;8.208;2022-12-10T09:10:08;21.88;;;13.60;;
18455;SDS011;9357;49.900;8.208;2022-12-10T09:11:42;22.75;;;14.48;;
18455;SDS011;9357;49.900;8.208;2022-12-10T09:13:16;29.30;;;16.92;;
18455;SDS011;9357;49.900;8.208;2022-12-10T09:14:49;22.98;;;14.70;;
18455;SDS011;9357;49.900;8.208;2022-12-10T09:16:28;18.05;;;12.05;;
18455;SDS011;9357;49.900;8.208;2022-12-10T09:18:02;19.35;;;12.38;;
18455;SDS011;9357;49.900;8.208;2022-12-10T09:19:34;18.60;;;11.68;;